createdAt,value
2023-03-19T00:00:29.949Z,41.65
2023-03-19T00:02:57.287Z,41.53
2023-03-19T00:05:24.236Z,42.08
2023-03-19T00:07:51.150Z,41.85
2023-03-19T00:10:18.241Z,42.63
2023-03-19T00:12:45.075Z,41.42
2023-03-19T00:15:14.679Z,38.97
2023-03-19T00:17:44.820Z,41.63
2023-03-19T00:20:14.943Z,41.53
2023-03-19T00:22:41.922Z,40.72
2023-03-19T00:25:10.261Z,41.40
2023-03-19T00:27:38.257Z,40.55
2023-03-19T00:30:07.110Z,42.15
2023-03-19T00:32:34.305Z,42.65
2023-03-19T00:35:01.549Z,41.10
2023-03-19T00:37:28.634Z,38.67
2023-03-19T00:39:57.297Z,40.58
2023-03-19T00:42:24.123Z,40.28
2023-03-19T00:44:51.202Z,36.47
2023-03-19T00:47:18.177Z,35.63
2023-03-19T00:49:47.507Z,33.80
2023-03-19T00:52:14.432Z,30.83
2023-03-19T00:54:41.552Z,30.02
2023-03-19T00:57:08.734Z,31.63
2023-03-19T00:59:35.740Z,30.40
2023-03-19T01:02:03.762Z,30.42
2023-03-19T01:04:30.860Z,30.85
2023-03-19T01:09:25.615Z,29.90
2023-03-19T01:11:52.521Z,29.73
2023-03-19T01:14:19.395Z,29.88
2023-03-19T01:16:46.634Z,29.88
2023-03-19T01:19:14.393Z,31.17
2023-03-19T01:21:43.064Z,36.42
2023-03-19T01:24:10.787Z,38.25
2023-03-19T01:26:37.611Z,39.28
2023-03-19T01:29:04.549Z,36.22
2023-03-19T01:31:31.559Z,39.47
2023-03-19T01:33:58.497Z,36.55
2023-03-19T01:36:25.332Z,34.85
2023-03-19T01:38:52.228Z,34.13
2023-03-19T01:41:19.155Z,36.72
2023-03-19T01:43:46.400Z,36.78
2023-03-19T01:46:33.437Z,38.08
2023-03-19T01:49:01.666Z,32.70
2023-03-19T01:51:40.682Z,36.75
2023-03-19T01:54:10.616Z,35.75
2023-03-19T01:56:39.071Z,36.58
2023-03-19T01:59:31.950Z,37.35
2023-03-19T02:02:02.764Z,35.88
2023-03-19T02:04:31.837Z,35.72
2023-03-19T02:06:59.742Z,36.28
2023-03-19T02:09:27.918Z,37.03
2023-03-19T02:11:55.225Z,35.67
2023-03-19T02:14:23.812Z,35.53
2023-03-19T02:16:51.361Z,34.28
2023-03-19T02:19:22.959Z,37.67
2023-03-19T02:21:49.927Z,26.55
2023-03-19T02:24:21.594Z,36.42
2023-03-19T02:26:49.111Z,35.17
2023-03-19T02:29:15.993Z,34.30
2023-03-19T02:31:42.919Z,35.72
2023-03-19T02:34:10.233Z,34.33
2023-03-19T02:36:44.402Z,34.03
2023-03-19T02:39:32.221Z,33.95
2023-03-19T02:42:02.771Z,34.65
2023-03-19T02:44:29.638Z,34.22
2023-03-19T02:46:56.776Z,33.45
2023-03-19T02:49:24.828Z,35.20
2023-03-19T02:51:51.870Z,33.17
2023-03-19T02:54:18.695Z,33.85
2023-03-19T02:56:46.249Z,35.22
2023-03-19T02:59:15.649Z,32.42
2023-03-19T03:01:42.473Z,34.65
2023-03-19T03:04:09.329Z,32.85
2023-03-19T03:06:36.434Z,34.65
2023-03-19T03:09:03.781Z,33.50
2023-03-19T03:11:30.673Z,33.72
2023-03-19T03:13:57.777Z,35.65
2023-03-19T03:16:25.817Z,38.30
2023-03-19T03:18:52.717Z,36.58
2023-03-19T03:21:21.467Z,39.33
2023-03-19T03:23:48.700Z,35.75
2023-03-19T03:26:15.640Z,33.67
2023-03-19T03:28:43.492Z,34.88
2023-03-19T03:31:10.568Z,34.03
2023-03-19T03:33:37.551Z,34.15
2023-03-19T03:36:04.822Z,34.28
2023-03-19T03:38:32.942Z,33.53
2023-03-19T03:41:02.455Z,33.55
2023-03-19T03:43:29.244Z,34.42
2023-03-19T03:45:56.163Z,35.97
2023-03-19T03:48:23.115Z,35.33
2023-03-19T03:50:51.762Z,33.03
2023-03-19T03:53:18.655Z,33.53
2023-03-19T03:55:45.803Z,34.63
2023-03-19T03:58:13.242Z,33.40
2023-03-19T04:00:40.390Z,34.50
2023-03-19T04:03:07.244Z,34.50
2023-03-19T04:05:34.068Z,34.40
2023-03-19T04:08:01.345Z,34.78
2023-03-19T04:10:28.280Z,35.53
2023-03-19T04:12:55.251Z,35.65
2023-03-19T04:15:22.711Z,35.47
2023-03-19T04:17:52.104Z,34.05
2023-03-19T04:20:19.048Z,33.03
2023-03-19T04:22:46.034Z,33.45
2023-03-19T04:25:12.833Z,31.23
2023-03-19T04:27:41.904Z,31.25
2023-03-19T04:30:10.054Z,31.10
2023-03-19T04:32:37.079Z,30.80
2023-03-19T04:35:04.182Z,30.15
2023-03-19T04:37:31.410Z,30.05
2023-03-19T04:39:58.248Z,32.47
2023-03-19T04:42:25.174Z,30.92
2023-03-19T04:44:52.540Z,32.40
2023-03-19T04:47:19.432Z,31.88
2023-03-19T04:49:47.060Z,30.58
2023-03-19T04:52:14.020Z,30.85
2023-03-19T04:54:41.049Z,31.98
2023-03-19T04:57:08.296Z,30.23
2023-03-19T04:59:35.125Z,30.70
2023-03-19T05:02:02.024Z,32.35
2023-03-19T05:04:28.928Z,31.58
2023-03-19T05:06:56.691Z,31.58
2023-03-19T05:09:23.603Z,31.55
2023-03-19T05:11:50.428Z,34.97
2023-03-19T05:14:17.248Z,34.28
2023-03-19T05:16:44.147Z,32.67
2023-03-19T05:19:11.165Z,32.88
2023-03-19T05:21:38.141Z,32.88
2023-03-19T05:24:05.422Z,34.53
2023-03-19T05:26:34.971Z,32.45
2023-03-19T05:29:03.671Z,32.72
2023-03-19T05:31:30.620Z,31.80
2023-03-19T05:34:00.415Z,31.17
2023-03-19T05:36:28.286Z,30.85
2023-03-19T05:38:55.098Z,29.65
2023-03-19T05:41:21.922Z,31.48
2023-03-19T05:43:48.769Z,31.52
2023-03-19T05:46:15.804Z,33.38
2023-03-19T05:48:42.849Z,38.47
2023-03-19T05:51:09.681Z,53.92
2023-03-19T05:53:36.652Z,52.05
2023-03-19T05:56:03.941Z,40.75
2023-03-19T05:58:31.018Z,38.20
2023-03-19T06:00:58.018Z,37.58
2023-03-19T06:03:26.848Z,39.42
2023-03-19T06:05:53.920Z,40.15
2023-03-19T06:08:21.684Z,36.42
2023-03-19T06:10:48.514Z,38.35
2023-03-19T06:13:15.464Z,34.22
2023-03-19T06:15:42.531Z,36.50
2023-03-19T06:18:09.377Z,36.55
2023-03-19T06:20:36.549Z,36.08
2023-03-19T06:23:03.617Z,36.08
2023-03-19T06:25:30.444Z,36.50
2023-03-19T06:27:57.353Z,36.30
2023-03-19T06:30:24.289Z,35.47
2023-03-19T06:32:51.189Z,35.72
2023-03-19T06:35:18.390Z,36.33
2023-03-19T06:37:49.394Z,34.75
2023-03-19T06:40:16.379Z,34.58
2023-03-19T06:42:47.724Z,34.78
2023-03-19T06:45:16.649Z,35.87
2023-03-19T06:47:43.758Z,32.33
2023-03-19T06:50:11.598Z,33.10
2023-03-19T06:52:38.596Z,34.30
2023-03-19T06:55:07.091Z,33.92
2023-03-19T06:57:34.762Z,35.08
2023-03-19T07:00:01.995Z,36.35
2023-03-19T07:02:28.760Z,38.22
2023-03-19T07:04:55.691Z,39.75
2023-03-19T07:07:22.531Z,38.80
2023-03-19T07:09:49.334Z,37.83
2023-03-19T07:12:16.435Z,37.40
2023-03-19T07:14:45.879Z,39.45
2023-03-19T07:17:12.763Z,36.85
2023-03-19T07:19:39.568Z,37.67
2023-03-19T07:22:06.768Z,36.17
2023-03-19T07:24:33.652Z,37.53
2023-03-19T07:27:01.912Z,38.50
2023-03-19T07:29:28.772Z,37.40
2023-03-19T07:31:56.107Z,37.40
2023-03-19T07:34:23.328Z,36.60
2023-03-19T07:36:51.259Z,36.63
2023-03-19T07:39:18.245Z,39.50
2023-03-19T07:41:47.749Z,39.15
2023-03-19T07:44:17.441Z,40.80
2023-03-19T07:46:44.312Z,40.85
2023-03-19T07:49:11.208Z,39.78
2023-03-19T07:51:38.004Z,38.33
2023-03-19T07:54:05.055Z,39.25
2023-03-19T07:56:32.038Z,39.92
2023-03-19T07:58:59.909Z,40.83
2023-03-19T08:01:26.775Z,38.30
2023-03-19T08:03:53.564Z,38.58
2023-03-19T08:06:20.477Z,38.65
2023-03-19T08:08:47.285Z,37.38
2023-03-19T08:11:16.164Z,38.25
2023-03-19T08:13:43.025Z,38.60
2023-03-19T08:16:10.028Z,35.60
2023-03-19T08:18:37.273Z,35.40
2023-03-19T08:21:04.245Z,38.38
2023-03-19T08:23:31.251Z,38.08
2023-03-19T08:25:58.135Z,36.47
2023-03-19T08:28:24.957Z,34.97
2023-03-19T08:30:51.855Z,34.25
2023-03-19T08:33:18.989Z,31.70
2023-03-19T08:35:45.972Z,34.45
2023-03-19T08:38:12.842Z,36.10
2023-03-19T08:40:39.749Z,37.90
2023-03-19T08:43:07.374Z,34.13
2023-03-19T08:45:34.172Z,35.60
2023-03-19T08:48:01.033Z,36.03
2023-03-19T08:50:27.844Z,33.97
2023-03-19T08:52:54.606Z,35.65
2023-03-19T08:55:21.773Z,32.53
2023-03-19T08:57:48.640Z,34.92
2023-03-19T09:00:16.174Z,36.67
2023-03-19T09:02:42.956Z,33.22
2023-03-19T09:05:10.045Z,32.67
2023-03-19T09:07:36.900Z,27.83
2023-03-19T09:10:04.050Z,26.38
2023-03-19T09:12:30.977Z,26.27
2023-03-19T09:14:57.736Z,25.10
2023-03-19T09:17:24.569Z,25.10
2023-03-19T09:19:51.521Z,25.35
2023-03-19T09:22:18.285Z,26.80
2023-03-19T09:24:45.515Z,26.55
2023-03-19T09:27:12.444Z,25.95
2023-03-19T09:29:39.265Z,25.27
2023-03-19T09:32:06.201Z,26.02
2023-03-19T09:34:33.160Z,24.88
2023-03-19T09:37:00.018Z,24.23
2023-03-19T09:39:26.831Z,22.95
2023-03-19T09:42:21.346Z,23.10
2023-03-19T09:44:48.489Z,21.08
2023-03-19T09:47:35.491Z,23.00
2023-03-19T09:50:04.422Z,22.13
2023-03-19T09:52:44.703Z,20.98
2023-03-19T09:55:35.572Z,19.83
2023-03-19T09:58:02.747Z,21.30
2023-03-19T10:00:34.637Z,20.13
2023-03-19T10:03:26.904Z,18.40
2023-03-19T10:06:15.140Z,19.27
2023-03-19T10:08:53.394Z,20.00
2023-03-19T10:11:57.272Z,18.40
2023-03-19T10:14:36.305Z,18.25
2023-03-19T10:17:07.007Z,18.17
2023-03-19T10:19:51.516Z,17.77
2023-03-19T10:22:32.456Z,19.10
2023-03-19T10:24:59.774Z,16.73
2023-03-19T10:27:29.255Z,16.05
2023-03-19T10:29:56.987Z,15.88
2023-03-19T10:32:45.467Z,15.88
2023-03-19T10:35:19.629Z,15.25
2023-03-19T10:37:48.009Z,16.30
2023-03-19T10:40:22.901Z,17.00
2023-03-19T10:43:25.047Z,16.50
2023-03-19T10:48:19.583Z,16.33
2023-03-19T10:51:01.332Z,16.10
2023-03-19T10:53:33.785Z,17.15
2023-03-19T10:56:06.940Z,16.23
2023-03-19T10:58:36.042Z,15.88
2023-03-19T11:01:12.798Z,16.05
2023-03-19T11:03:55.946Z,15.52
2023-03-19T11:06:34.406Z,17.58
2023-03-19T11:09:10.460Z,17.40
2023-03-19T11:11:53.369Z,14.05
2023-03-19T11:14:29.648Z,12.98
2023-03-19T11:17:07.552Z,13.63
2023-03-19T11:19:43.669Z,12.68
2023-03-19T11:22:21.072Z,12.20
2023-03-19T11:25:01.105Z,13.52
2023-03-19T11:27:35.021Z,14.00
2023-03-19T11:30:04.372Z,14.20
2023-03-19T11:32:34.056Z,13.43
2023-03-19T11:35:09.622Z,14.40
2023-03-19T11:37:39.498Z,15.10
2023-03-19T11:40:22.760Z,12.90
2023-03-19T11:43:12.000Z,13.90
2023-03-19T11:45:50.772Z,14.60
2023-03-19T11:48:38.897Z,12.80
2023-03-19T11:51:17.941Z,12.02
2023-03-19T11:54:02.152Z,12.20
2023-03-19T11:56:47.527Z,11.57
2023-03-19T11:59:29.353Z,11.25
2023-03-19T12:02:02.677Z,10.57
2023-03-19T12:04:45.147Z,10.20
2023-03-19T12:07:33.144Z,10.45
2023-03-19T12:10:18.940Z,10.55
2023-03-19T12:13:01.301Z,10.65
2023-03-19T12:15:36.203Z,10.35
2023-03-19T12:18:23.484Z,10.80
2023-03-19T12:21:08.649Z,12.32
2023-03-19T12:23:50.627Z,13.63
2023-03-19T12:29:10.342Z,12.57
2023-03-19T12:31:58.351Z,12.27
2023-03-19T12:34:48.141Z,11.07
2023-03-19T12:37:32.634Z,10.80
2023-03-19T12:40:07.804Z,10.88
2023-03-19T12:42:39.371Z,11.68
2023-03-19T12:45:16.445Z,11.45
2023-03-19T12:47:45.659Z,12.45
2023-03-19T12:50:15.560Z,12.90
2023-03-19T12:52:44.649Z,13.30
2023-03-19T12:55:36.395Z,12.88
2023-03-19T12:58:09.176Z,15.55
2023-03-19T13:00:57.765Z,14.30
2023-03-19T13:03:42.350Z,15.13
2023-03-19T13:06:31.652Z,13.43
2023-03-19T13:09:24.787Z,15.52
2023-03-19T13:12:18.778Z,13.38
2023-03-19T13:14:50.137Z,11.55
2023-03-19T13:17:28.287Z,10.48
2023-03-19T13:19:56.560Z,11.85
2023-03-19T13:22:30.306Z,12.57
2023-03-19T13:24:57.617Z,14.23
2023-03-19T13:27:31.247Z,13.80
2023-03-19T13:30:01.338Z,14.50
2023-03-19T13:32:45.079Z,15.20
2023-03-19T13:35:27.066Z,13.75
2023-03-19T13:38:34.512Z,11.98
2023-03-19T13:41:03.935Z,11.27
2023-03-19T13:43:30.669Z,13.00
2023-03-19T13:46:12.784Z,13.85
2023-03-19T13:48:45.394Z,14.10
2023-03-19T13:51:18.446Z,14.77
2023-03-19T13:53:58.416Z,17.23
2023-03-19T13:56:30.431Z,15.77
2023-03-19T13:59:15.842Z,17.27
2023-03-19T14:01:45.744Z,17.83
2023-03-19T14:04:33.104Z,17.10
2023-03-19T14:07:14.976Z,17.50
2023-03-19T14:10:05.752Z,18.23
2023-03-19T14:12:41.580Z,19.80
2023-03-19T14:15:09.343Z,19.08
2023-03-19T14:17:48.531Z,17.98
2023-03-19T14:20:17.190Z,18.40
2023-03-19T14:22:45.014Z,18.38
2023-03-19T14:25:18.837Z,17.75
2023-03-19T14:27:56.615Z,18.63
2023-03-19T14:30:34.031Z,18.67
2023-03-19T14:33:06.965Z,18.83
2023-03-19T14:35:39.821Z,19.65
2023-03-19T14:38:35.992Z,16.90
2023-03-19T14:41:04.378Z,16.80
2023-03-19T14:43:37.545Z,17.02
2023-03-19T14:46:05.143Z,17.13
2023-03-19T14:48:44.251Z,18.30
2023-03-19T14:51:18.672Z,17.23
2023-03-19T14:53:56.019Z,14.52
2023-03-19T14:56:31.172Z,16.80
2023-03-19T14:59:00.951Z,14.90
2023-03-19T15:01:28.158Z,14.57
2023-03-19T15:04:03.137Z,14.73
2023-03-19T15:06:35.502Z,15.48
2023-03-19T15:09:02.767Z,16.23
2023-03-19T15:11:35.805Z,17.25
2023-03-19T15:14:29.202Z,17.20
2023-03-19T15:17:18.994Z,17.40
2023-03-19T15:19:45.997Z,16.75
2023-03-19T15:22:15.125Z,17.25
2023-03-19T15:24:42.842Z,17.65
2023-03-19T15:27:24.068Z,17.83
2023-03-19T15:29:52.023Z,18.05
2023-03-19T15:32:54.283Z,18.42
2023-03-19T15:35:29.717Z,17.88
2023-03-19T15:40:24.760Z,19.58
2023-03-19T15:42:51.831Z,18.88
2023-03-19T15:45:24.552Z,19.08
2023-03-19T15:48:00.466Z,18.88
2023-03-19T15:50:30.171Z,18.20
2023-03-19T15:53:00.936Z,17.70
2023-03-19T15:55:27.968Z,17.38
2023-03-19T15:57:57.336Z,17.08
2023-03-19T16:00:24.739Z,16.70
2023-03-19T16:02:52.693Z,17.35
2023-03-19T16:05:24.287Z,17.08
2023-03-19T16:08:22.666Z,18.27
2023-03-19T16:10:49.607Z,18.85
2023-03-19T16:13:32.280Z,19.17
2023-03-19T16:16:03.596Z,19.20
2023-03-19T16:18:41.100Z,21.33
2023-03-19T16:21:10.961Z,19.10
2023-03-19T16:23:42.916Z,20.60
2023-03-19T16:26:21.863Z,20.88
2023-03-19T16:28:59.603Z,22.48
2023-03-19T16:31:29.812Z,22.15
2023-03-19T16:33:57.035Z,25.23
2023-03-19T16:36:28.764Z,24.77
2023-03-19T16:39:17.860Z,26.92
2023-03-19T16:41:46.077Z,30.83
2023-03-19T16:44:19.373Z,32.85
2023-03-19T16:46:46.240Z,31.58
2023-03-19T16:49:13.235Z,32.67
2023-03-19T16:51:40.226Z,30.55
2023-03-19T16:54:07.163Z,30.58
2023-03-19T16:56:34.053Z,30.20
2023-03-19T16:59:04.870Z,29.90
2023-03-19T17:01:34.253Z,29.73
2023-03-19T17:04:01.673Z,29.60
2023-03-19T17:06:31.569Z,28.90
2023-03-19T17:08:58.331Z,30.35
2023-03-19T17:11:45.458Z,29.55
2023-03-19T17:14:19.360Z,28.52
2023-03-19T17:16:54.421Z,28.30
2023-03-19T17:19:23.625Z,28.33
2023-03-19T17:21:53.612Z,28.25
2023-03-19T17:24:26.772Z,27.88
2023-03-19T17:26:54.462Z,30.15
2023-03-19T17:29:23.107Z,31.33
2023-03-19T17:31:50.805Z,29.75
2023-03-19T17:34:23.253Z,29.75
2023-03-19T17:36:56.123Z,30.17
2023-03-19T17:39:24.517Z,31.65
2023-03-19T17:41:53.839Z,30.17
2023-03-19T17:44:20.983Z,29.20
2023-03-19T17:46:50.010Z,32.15
2023-03-19T17:49:30.532Z,34.50
2023-03-19T17:51:57.765Z,30.35
2023-03-19T17:54:26.927Z,30.55
2023-03-19T17:56:54.947Z,35.83
2023-03-19T17:59:22.585Z,29.83
2023-03-19T18:01:52.291Z,30.75
2023-03-19T18:04:21.107Z,31.25
2023-03-19T18:06:55.519Z,33.92
2023-03-19T18:09:25.753Z,32.17
2023-03-19T18:11:53.029Z,29.63
2023-03-19T18:14:20.470Z,30.65
2023-03-19T18:16:47.505Z,29.83
2023-03-19T18:19:21.711Z,29.30
2023-03-19T18:21:51.369Z,30.08
2023-03-19T18:24:18.232Z,33.13
2023-03-19T18:26:45.061Z,29.58
2023-03-19T18:29:11.903Z,29.85
2023-03-19T18:31:39.076Z,27.60
2023-03-19T18:34:08.910Z,26.48
2023-03-19T18:36:35.835Z,27.10
2023-03-19T18:39:02.738Z,26.67
2023-03-19T18:41:29.665Z,26.20
2023-03-19T18:43:56.725Z,25.67
2023-03-19T18:46:26.816Z,26.00
2023-03-19T18:49:07.133Z,25.05
2023-03-19T18:51:33.972Z,25.08
2023-03-19T18:54:01.134Z,25.83
2023-03-19T18:56:30.348Z,25.02
2023-03-19T18:58:59.029Z,29.50
2023-03-19T19:01:26.932Z,25.33
2023-03-19T19:03:54.719Z,25.80
2023-03-19T19:06:46.747Z,27.90
2023-03-19T19:09:14.916Z,25.23
2023-03-19T19:11:44.577Z,28.85
2023-03-19T19:14:22.372Z,27.17
2023-03-19T19:16:49.508Z,26.17
2023-03-19T19:19:20.253Z,29.60
2023-03-19T19:21:47.174Z,28.80
2023-03-19T19:24:15.126Z,34.97
2023-03-19T19:26:46.895Z,31.83
2023-03-19T19:29:26.609Z,33.53
2023-03-19T19:31:54.290Z,33.40
2023-03-19T19:34:21.425Z,35.95
2023-03-19T19:36:48.403Z,38.95
2023-03-19T19:39:15.244Z,46.25
2023-03-19T19:41:43.807Z,43.08
2023-03-19T19:44:21.270Z,38.08
2023-03-19T19:46:48.239Z,42.85
2023-03-19T19:49:15.476Z,45.40
2023-03-19T19:51:42.308Z,45.95
2023-03-19T19:54:09.274Z,45.10
2023-03-19T19:56:39.236Z,50.40
2023-03-19T19:59:07.875Z,47.33
2023-03-19T20:01:35.554Z,46.28
2023-03-19T20:04:04.110Z,46.15
2023-03-19T20:06:31.034Z,46.67
2023-03-19T20:08:57.896Z,46.75
2023-03-19T20:11:25.800Z,48.35
2023-03-19T20:13:55.611Z,49.22
2023-03-19T20:16:26.962Z,46.08
2023-03-19T20:18:55.085Z,48.07
2023-03-19T20:21:22.984Z,48.45
2023-03-19T20:23:53.117Z,48.40
2023-03-19T20:26:22.319Z,42.78
2023-03-19T20:28:49.352Z,44.33
2023-03-19T20:31:38.116Z,49.03
2023-03-19T20:34:04.938Z,45.90
2023-03-19T20:36:31.682Z,48.30
2023-03-19T20:38:58.577Z,47.47
2023-03-19T20:41:29.079Z,44.00
2023-03-19T20:43:56.416Z,48.03
2023-03-19T20:46:24.775Z,47.92
2023-03-19T20:48:51.670Z,50.63
2023-03-19T20:51:21.555Z,54.45
2023-03-19T20:53:49.864Z,56.17
2023-03-19T20:56:18.204Z,55.03
2023-03-19T20:58:45.647Z,58.63
2023-03-19T21:01:14.379Z,64.32
2023-03-19T21:03:41.777Z,68.38
2023-03-19T21:06:24.860Z,59.42
2023-03-19T21:08:56.922Z,56.72
2023-03-19T21:11:44.778Z,54.10
2023-03-19T21:14:18.560Z,52.33
2023-03-19T21:16:45.334Z,54.72
2023-03-19T21:19:12.709Z,56.13
2023-03-19T21:21:39.720Z,52.80
2023-03-19T21:24:18.100Z,54.40
2023-03-19T21:26:46.304Z,54.17
2023-03-19T21:29:24.342Z,57.75
2023-03-19T21:31:56.802Z,53.53
2023-03-19T21:34:23.709Z,57.58
2023-03-19T21:36:50.951Z,54.22
2023-03-19T21:39:17.952Z,54.08
2023-03-19T21:41:46.570Z,54.22
2023-03-19T21:44:16.113Z,57.08
2023-03-19T21:46:45.139Z,61.67
2023-03-19T21:49:12.476Z,56.72
2023-03-19T21:51:39.311Z,57.97
2023-03-19T21:54:06.252Z,57.05
2023-03-19T21:56:41.900Z,56.40
2023-03-19T21:59:28.459Z,59.47
2023-03-19T22:01:56.377Z,55.50
2023-03-19T22:04:23.359Z,58.20
2023-03-19T22:06:50.210Z,56.03
2023-03-19T22:09:17.206Z,61.30
2023-03-19T22:11:46.062Z,62.13
2023-03-19T22:14:14.557Z,61.13
2023-03-19T22:16:44.739Z,63.85
2023-03-19T22:19:16.090Z,65.82
2023-03-19T22:21:42.918Z,82.35
2023-03-19T22:24:09.852Z,88.50
2023-03-19T22:26:38.900Z,91.68
2023-03-19T22:29:11.193Z,81.13
2023-03-19T22:34:04.912Z,73.03
2023-03-19T22:36:31.755Z,70.90
2023-03-19T22:38:58.699Z,69.60
2023-03-19T22:41:29.503Z,69.38
2023-03-19T22:43:58.294Z,68.93
2023-03-19T22:46:25.520Z,69.65
2023-03-19T22:48:52.531Z,69.57
2023-03-19T22:51:24.518Z,68.15
2023-03-19T22:53:51.929Z,67.68
2023-03-19T22:56:19.883Z,69.68
2023-03-19T22:58:47.755Z,67.80
2023-03-19T23:01:21.236Z,66.47
2023-03-19T23:03:49.464Z,68.03
2023-03-19T23:06:29.805Z,75.70
2023-03-19T23:08:57.905Z,73.03
2023-03-19T23:11:24.811Z,75.95
2023-03-19T23:13:51.814Z,71.32
2023-03-19T23:16:24.048Z,70.63
2023-03-19T23:21:21.010Z,72.90
2023-03-19T23:23:47.817Z,69.93
2023-03-19T23:26:34.363Z,68.30
2023-03-19T23:29:05.134Z,69.15
2023-03-19T23:31:33.873Z,70.25
2023-03-19T23:34:00.902Z,72.43
2023-03-19T23:36:27.870Z,71.40
2023-03-19T23:38:54.680Z,71.72
2023-03-19T23:41:24.162Z,72.90
2023-03-19T23:43:52.821Z,74.43
2023-03-19T23:46:20.338Z,72.63
2023-03-19T23:48:50.032Z,71.38
2023-03-19T23:51:18.901Z,77.47
2023-03-19T23:53:45.964Z,73.93
2023-03-19T23:56:25.495Z,76.43
2023-03-19T23:58:53.820Z,74.65
